Decoded Metar for KSKF (SAN ANTONIO in TX, USA) (IATA:SKF) | Meteo·Mobile Aviation Weather
aviador You're here:

KSKF Decoded Metar

SAN ANTONIO in TX, USA
Report Time2019-06-18 14:46:00
UTC Time2019-06-18 15:03:44
Flight Rules vfr VFR
WindCalm
Visibility9999 m
Phenomena:N/A
Clouds:Scattered 013 Hf
Expected CloudBase > 1,200 ft AGL from Temp-Dew spread
CeilingNone
Temp26°C (ISA +12)
Dew Point23°C (84% RH)
QNH1015 hPa
Density Alt2,421 ft
Elevation689 ft
Report Wrong Elevation
Raw Report
SPECI KSKF 181446Z 00000KT 10SM SCT013 26/23 A2996 RMK SLP138 CHINO
RWY34 $=

Extra information for KSKF:More info

Metar Taf Metar & Taf Last 4 Metars F.Rules Stats Wind Profile Meteogram Temp Stats Airport Information Weather charts Add Link Nearby VenuesMetar ALERT Operation Metar Decoded Social comments

AIRNAV info for KSKF